Time;durP1;ratioP1;P1;durP2;ratioP2;P2;SDS_P1;SDS_P2;PMS_P1;PMS_P2;Temp;Humidity;BMP_temperature;BMP_pressure;BME280_temperature;BME280_humidity;BME280_pressure;Samples;Min_cycle;Max_cycle;Signal;HPM_P1;HPM_P2
2022/04/03 00:02:18;;;;;;;19.37;15.70;;;1.00;99.90;;;;;;5007413;28;20588;-65
2022/04/03 00:04:45;;;;;;;21.50;15.80;;;1.00;99.90;;;;;;5006788;28;20512;-66
2022/04/03 00:07:13;;;;;;;21.07;16.13;;;0.90;99.90;;;;;;5007256;28;20482;-66
2022/04/03 00:09:40;;;;;;;17.60;15.10;;;0.90;99.90;;;;;;5006894;28;20446;-66
2022/04/03 00:12:07;;;;;;;21.27;15.50;;;0.90;99.90;;;;;;5007397;28;20522;-67
2022/04/03 00:14:34;;;;;;;21.10;17.00;;;0.90;99.90;;;;;;5005710;28;20444;-66
2022/04/03 00:17:01;;;;;;;19.93;15.60;;;0.90;99.90;;;;;;5007581;28;20488;-67
2022/04/03 00:19:28;;;;;;;20.77;15.90;;;0.90;99.90;;;;;;5006884;28;20446;-65
2022/04/03 00:21:55;;;;;;;27.00;17.97;;;0.80;99.90;;;;;;5007489;28;20492;-66
2022/04/03 00:24:23;;;;;;;22.60;16.90;;;0.80;99.90;;;;;;5005995;28;20437;-66
2022/04/03 00:26:50;;;;;;;24.43;17.70;;;0.80;99.90;;;;;;5007363;28;20442;-65
2022/04/03 00:29:17;;;;;;;24.27;17.60;;;0.80;99.90;;;;;;5006180;28;20477;-67
2022/04/03 00:31:43;;;;;;;23.63;18.07;;;0.80;99.90;;;;;;5002246;28;20487;-66
2022/04/03 00:34:10;;;;;;;23.43;16.23;;;0.80;99.90;;;;;;5008728;28;20504;-66
2022/04/03 00:36:38;;;;;;;20.70;15.93;;;0.80;99.90;;;;;;5008990;28;20473;-65
2022/04/03 00:39:05;;;;;;;25.27;18.57;;;0.70;99.90;;;;;;5009738;28;20574;-67
2022/04/03 00:41:33;;;;;;;20.43;16.87;;;0.70;99.90;;;;;;5008976;28;20480;-67
2022/04/03 00:44:00;;;;;;;25.13;18.13;;;0.70;99.90;;;;;;5009519;28;20492;-66
2022/04/03 00:46:29;;;;;;;31.30;20.00;;;0.70;99.90;;;;;;5008709;28;20454;-65
2022/04/03 00:48:59;;;;;;;26.17;17.80;;;0.70;99.90;;;;;;5009520;28;20457;-66
2022/04/03 00:51:26;;;;;;;25.13;18.83;;;0.70;99.90;;;;;;5009168;28;20875;-67
2022/04/03 00:53:53;;;;;;;31.63;21.10;;;0.70;99.90;;;;;;5009590;28;20453;-66
2022/04/03 00:56:20;;;;;;;26.00;18.87;;;0.80;99.90;;;;;;5015080;28;20488;-66
2022/04/03 00:58:50;;;;;;;23.23;17.27;;;0.80;99.90;;;;;;5017378;28;20465;-66
2022/04/03 01:01:17;;;;;;;24.43;17.00;;;0.90;99.90;;;;;;5009157;28;20477;-66
2022/04/03 01:03:44;;;;;;;25.70;16.70;;;0.90;99.90;;;;;;5009102;28;21362;-66
2022/04/03 01:06:11;;;;;;;22.10;15.73;;;0.90;99.90;;;;;;5008542;28;20544;-65
2022/04/03 01:08:38;;;;;;;21.67;16.60;;;0.90;99.90;;;;;;5008245;28;20468;-66
2022/04/03 01:11:05;;;;;;;21.43;17.30;;;0.90;99.90;;;;;;5008947;28;20572;-67
2022/04/03 01:13:31;;;;;;;20.80;15.77;;;1.00;99.90;;;;;;5009211;28;20478;-67
2022/04/03 01:16:00;;;;;;;25.30;17.73;;;1.00;99.90;;;;;;5008478;28;20483;-65
2022/04/03 01:18:27;;;;;;;23.40;17.90;;;1.20;99.90;;;;;;5008651;28;20523;-65
2022/04/03 01:20:54;;;;;;;24.93;18.50;;;1.20;99.90;;;;;;5008854;28;20840;-66
2022/04/03 01:23:21;;;;;;;25.50;19.57;;;1.20;99.90;;;;;;5008599;28;20445;-67
2022/04/03 01:25:50;;;;;;;26.17;18.27;;;1.20;99.90;;;;;;5011044;28;20452;-67
2022/04/03 01:28:17;;;;;;;23.83;17.03;;;1.20;99.90;;;;;;5014485;28;20449;-64
2022/04/03 01:30:44;;;;;;;23.90;17.57;;;1.30;99.90;;;;;;5010004;28;20461;-68
2022/04/03 01:33:11;;;;;;;22.60;16.73;;;1.30;99.90;;;;;;5006154;28;20998;-64
2022/04/03 01:35:37;;;;;;;22.80;17.23;;;1.30;99.90;;;;;;5008203;28;20554;-65
2022/04/03 01:38:04;;;;;;;23.10;16.67;;;1.40;99.90;;;;;;5010168;28;20456;-65
2022/04/03 01:40:34;;;;;;;22.57;16.40;;;1.30;99.90;;;;;;5010291;28;20488;-64
2022/04/03 01:43:02;;;;;;;22.83;17.40;;;1.30;99.90;;;;;;5010320;28;20473;-64
2022/04/03 01:45:29;;;;;;;23.60;16.70;;;1.40;99.90;;;;;;5009678;28;20460;-64
2022/04/03 01:47:56;;;;;;;21.57;17.30;;;1.40;99.90;;;;;;5010106;28;20454;-65
2022/04/03 01:50:23;;;;;;;21.20;16.27;;;1.30;99.90;;;;;;5009851;28;20465;-65
2022/04/03 01:52:50;;;;;;;23.07;18.10;;;1.40;99.90;;;;;;5010095;28;20479;-65
2022/04/03 01:55:17;;;;;;;23.07;17.50;;;1.40;99.90;;;;;;5009206;28;20952;-64
2022/04/03 01:57:44;;;;;;;20.50;16.50;;;1.30;99.90;;;;;;5010212;28;20496;-65
2022/04/03 02:00:13;;;;;;;20.27;15.97;;;1.40;99.90;;;;;;5009542;28;21022;-66
2022/04/03 02:02:40;;;;;;;24.33;16.30;;;1.40;99.90;;;;;;5009844;28;20477;-64
2022/04/03 02:05:08;;;;;;;23.30;16.87;;;1.40;99.90;;;;;;5009283;28;20446;-64
2022/04/03 02:07:35;;;;;;;21.97;16.37;;;1.50;99.90;;;;;;5009666;28;20537;-65
2022/04/03 02:10:04;;;;;;;21.60;15.87;;;1.40;99.90;;;;;;5009455;28;20489;-65
2022/04/03 02:12:30;;;;;;;23.70;17.03;;;1.50;99.90;;;;;;5010004;28;20481;-66
2022/04/03 02:14:57;;;;;;;21.23;15.30;;;1.50;99.90;;;;;;5009132;28;20457;-64
2022/04/03 02:17:26;;;;;;;20.47;16.00;;;1.50;99.90;;;;;;5009676;28;20495;-65
2022/04/03 02:19:52;;;;;;;20.40;14.63;;;1.40;99.90;;;;;;5011602;28;20461;-65
2022/04/03 02:22:20;;;;;;;19.90;15.63;;;1.40;99.90;;;;;;5016617;28;20841;-65
2022/04/03 02:24:47;;;;;;;20.77;15.17;;;1.40;99.90;;;;;;5015620;28;20472;-65
2022/04/03 02:27:14;;;;;;;19.43;15.70;;;1.40;99.90;;;;;;5016382;28;20452;-65
2022/04/03 02:29:41;;;;;;;18.50;15.00;;;1.40;99.90;;;;;;5015913;28;20563;-65
2022/04/03 02:32:08;;;;;;;18.90;16.30;;;1.50;99.90;;;;;;5016137;28;20565;-65
2022/04/03 02:34:37;;;;;;;21.80;16.50;;;1.40;99.90;;;;;;5015368;28;20452;-65
2022/04/03 02:37:04;;;;;;;24.30;16.90;;;1.50;99.90;;;;;;5016280;28;20584;-66
2022/04/03 02:39:31;;;;;;;22.90;17.00;;;1.50;99.90;;;;;;5016022;28;20468;-65
2022/04/03 02:41:57;;;;;;;22.10;17.10;;;1.60;99.90;;;;;;5015965;28;20474;-64
2022/04/03 02:44:24;;;;;;;19.70;15.83;;;1.50;99.90;;;;;;5015638;28;20476;-65
2022/04/03 02:46:51;;;;;;;23.10;16.00;;;1.60;99.90;;;;;;5016648;28;20442;-66
2022/04/03 02:49:19;;;;;;;19.97;15.70;;;1.50;99.90;;;;;;5015778;28;20449;-65
2022/04/03 02:51:47;;;;;;;21.43;16.10;;;1.50;99.90;;;;;;5016155;28;20473;-66
2022/04/03 02:54:13;;;;;;;21.53;17.03;;;1.50;99.90;;;;;;5015387;28;20947;-66
2022/04/03 02:56:40;;;;;;;23.20;17.77;;;1.50;99.90;;;;;;5016424;28;20481;-65
2022/04/03 02:59:07;;;;;;;22.50;16.03;;;1.60;99.90;;;;;;5016174;28;20502;-64
2022/04/03 03:01:34;;;;;;;20.87;16.07;;;1.60;99.90;;;;;;5016256;28;20469;-65
2022/04/03 03:04:01;;;;;;;28.50;18.00;;;1.60;99.90;;;;;;5016244;28;20449;-64
2022/04/03 03:06:27;;;;;;;21.07;15.50;;;1.60;99.90;;;;;;5015904;28;21025;-64
2022/04/03 03:08:56;;;;;;;21.30;16.93;;;1.60;99.90;;;;;;5016119;28;20449;-65
2022/04/03 03:11:23;;;;;;;20.33;15.40;;;1.50;99.90;;;;;;5016558;28;20477;-64
2022/04/03 03:13:49;;;;;;;19.63;14.77;;;1.50;99.90;;;;;;5016550;28;20442;-65
2022/04/03 03:16:16;;;;;;;22.37;15.90;;;1.50;99.90;;;;;;5015641;28;20507;-64
2022/04/03 03:18:44;;;;;;;19.03;14.50;;;1.40;99.90;;;;;;5015794;28;20947;-64
2022/04/03 03:21:11;;;;;;;24.00;16.00;;;1.40;99.90;;;;;;5016270;28;20537;-64
2022/04/03 03:23:40;;;;;;;20.30;14.60;;;1.30;99.90;;;;;;5015900;28;20459;-64
2022/04/03 03:26:08;;;;;;;21.50;15.20;;;1.30;99.90;;;;;;5015304;28;20956;-65
2022/04/03 03:28:35;;;;;;;19.63;15.67;;;1.30;99.90;;;;;;5015698;28;20500;-64
2022/04/03 03:31:02;;;;;;;19.70;14.90;;;1.20;99.90;;;;;;5015000;28;20442;-64
2022/04/03 03:33:29;;;;;;;17.77;14.10;;;1.20;99.90;;;;;;5012492;28;21134;-63
2022/04/03 03:35:56;;;;;;;22.37;14.23;;;1.20;99.90;;;;;;5012096;28;20838;-64
2022/04/03 03:38:23;;;;;;;19.60;13.73;;;1.20;99.90;;;;;;5012358;28;20489;-63
2022/04/03 03:40:50;;;;;;;19.57;15.23;;;1.20;99.90;;;;;;5012648;28;20458;-64
2022/04/03 03:43:18;;;;;;;19.70;15.73;;;1.20;99.90;;;;;;5012883;28;20488;-65
2022/04/03 03:45:45;;;;;;;18.63;14.17;;;1.20;99.90;;;;;;5011908;28;20952;-65
2022/04/03 03:48:12;;;;;;;18.00;13.97;;;1.20;99.90;;;;;;5012996;28;20476;-65
2022/04/03 03:50:39;;;;;;;17.10;14.40;;;1.20;99.90;;;;;;5012453;28;20449;-65
2022/04/03 03:53:06;;;;;;;21.63;13.77;;;1.20;99.90;;;;;;5010171;28;20481;-64
2022/04/03 03:55:33;;;;;;;16.40;12.90;;;1.20;99.90;;;;;;5011933;28;20529;-65
2022/04/03 03:58:00;;;;;;;17.03;12.50;;;1.20;99.90;;;;;;5012738;28;20495;-65
2022/04/03 04:00:28;;;;;;;17.83;13.63;;;1.20;99.90;;;;;;5011575;28;20536;-65
2022/04/03 04:02:55;;;;;;;17.70;12.67;;;1.20;99.90;;;;;;5011669;28;20477;-66
2022/04/03 04:05:22;;;;;;;17.27;12.63;;;1.20;99.90;;;;;;5011461;28;20474;-66
2022/04/03 04:07:49;;;;;;;22.00;14.63;;;1.20;99.90;;;;;;5012060;28;20488;-65
2022/04/03 04:10:18;;;;;;;21.13;13.33;;;1.20;99.90;;;;;;5011948;28;20446;-65
2022/04/03 04:12:46;;;;;;;17.50;12.97;;;1.20;99.90;;;;;;5012516;28;20474;-65
2022/04/03 04:15:14;;;;;;;16.10;12.87;;;1.20;99.90;;;;;;5011118;28;20486;-65
2022/04/03 04:17:43;;;;;;;19.37;13.20;;;1.30;99.90;;;;;;5011685;28;20482;-64
2022/04/03 04:20:12;;;;;;;15.90;13.23;;;1.20;99.90;;;;;;5011493;28;20913;-64
2022/04/03 04:22:39;;;;;;;17.27;12.43;;;1.20;99.90;;;;;;5011341;28;20466;-64
2022/04/03 04:25:07;;;;;;;16.00;12.83;;;1.20;99.90;;;;;;5011052;28;20452;-65
2022/04/03 04:27:34;;;;;;;15.40;12.67;;;1.30;99.90;;;;;;5011583;28;20503;-65
2022/04/03 04:30:01;;;;;;;19.10;14.27;;;1.20;99.90;;;;;;5011246;28;20963;-64
2022/04/03 04:32:28;;;;;;;18.50;12.60;;;1.20;99.90;;;;;;5011426;28;20472;-65
2022/04/03 04:34:56;;;;;;;16.43;12.20;;;1.30;99.90;;;;;;5010586;28;20963;-65
2022/04/03 04:37:23;;;;;;;16.90;12.63;;;1.20;99.90;;;;;;5011570;28;20542;-64
2022/04/03 04:39:50;;;;;;;21.10;13.80;;;1.20;99.90;;;;;;5011003;28;20468;-65
2022/04/03 04:42:17;;;;;;;23.30;13.27;;;1.20;99.90;;;;;;5011394;28;20469;-64
2022/04/03 04:44:44;;;;;;;16.00;13.13;;;1.20;99.90;;;;;;5010416;28;20537;-64
2022/04/03 04:47:11;;;;;;;17.17;12.93;;;1.10;99.90;;;;;;5011311;28;20499;-65
2022/04/03 04:49:38;;;;;;;17.50;12.17;;;1.10;99.90;;;;;;5010594;28;20457;-64
2022/04/03 04:52:07;;;;;;;18.37;12.93;;;1.10;99.90;;;;;;5011295;28;20480;-65
2022/04/03 04:54:35;;;;;;;14.40;11.73;;;1.10;99.90;;;;;;5010489;28;20540;-65
2022/04/03 04:57:02;;;;;;;19.17;14.50;;;1.10;99.90;;;;;;5011047;28;21011;-66
2022/04/03 04:59:28;;;;;;;16.40;13.10;;;1.10;99.90;;;;;;5010822;28;20533;-64
2022/04/03 05:01:56;;;;;;;15.67;12.67;;;1.10;99.90;;;;;;5010775;28;20503;-66
2022/04/03 05:04:23;;;;;;;16.77;12.33;;;1.10;99.90;;;;;;5010280;28;20461;-65
2022/04/03 05:06:51;;;;;;;15.67;12.23;;;1.10;99.90;;;;;;5011043;28;20970;-64
2022/04/03 05:09:20;;;;;;;18.70;13.27;;;1.10;99.90;;;;;;5011135;28;20446;-64
2022/04/03 05:11:47;;;;;;;17.13;13.10;;;1.10;99.90;;;;;;5010791;28;20465;-64
2022/04/03 05:14:14;;;;;;;16.77;13.73;;;1.10;99.90;;;;;;5010445;28;20454;-65
2022/04/03 05:16:42;;;;;;;19.73;13.00;;;1.10;99.90;;;;;;5010730;28;20450;-66
2022/04/03 05:19:12;;;;;;;17.30;12.77;;;1.10;99.90;;;;;;5010517;28;20481;-64
2022/04/03 05:21:39;;;;;;;19.90;13.97;;;1.10;99.90;;;;;;5011200;28;20899;-64
2022/04/03 05:24:07;;;;;;;20.30;13.50;;;1.10;99.90;;;;;;5010009;28;20532;-65
2022/04/03 05:26:35;;;;;;;17.83;13.80;;;1.10;99.90;;;;;;5010695;28;20560;-64
2022/04/03 05:29:02;;;;;;;14.77;11.90;;;1.20;99.90;;;;;;5009984;28;20960;-65
2022/04/03 05:31:29;;;;;;;16.83;11.70;;;1.20;99.90;;;;;;5010342;28;20524;-64
2022/04/03 05:33:56;;;;;;;16.00;13.00;;;1.30;99.90;;;;;;5010298;28;20449;-60
2022/04/03 05:36:23;;;;;;;15.73;12.70;;;1.30;99.90;;;;;;5009979;28;20446;-65
2022/04/03 05:38:50;;;;;;;14.03;11.50;;;1.40;99.90;;;;;;5009830;28;20489;-64
2022/04/03 05:41:17;;;;;;;19.87;12.50;;;1.30;99.90;;;;;;5010393;28;20476;-65
2022/04/03 05:43:45;;;;;;;16.23;11.47;;;1.40;99.90;;;;;;5010205;28;20449;-64
2022/04/03 05:46:12;;;;;;;16.10;12.20;;;1.30;99.90;;;;;;5009561;28;20452;-65
2022/04/03 05:48:38;;;;;;;13.93;10.87;;;1.40;99.90;;;;;;5009861;28;20442;-64
2022/04/03 05:51:05;;;;;;;14.33;11.63;;;1.50;99.90;;;;;;5009823;28;20991;-64
2022/04/03 05:53:32;;;;;;;16.50;11.53;;;1.50;99.90;;;;;;5010449;28;20446;-64
2022/04/03 05:55:59;;;;;;;14.10;10.73;;;1.50;99.90;;;;;;5008689;28;20450;-65
2022/04/03 05:58:26;;;;;;;15.27;11.23;;;1.60;99.90;;;;;;5010194;28;20469;-64
2022/04/03 06:00:54;;;;;;;13.50;10.07;;;1.60;99.90;;;;;;5010013;28;20449;-64
2022/04/03 06:03:21;;;;;;;11.90;10.07;;;1.60;99.90;;;;;;5010235;28;20442;-64
2022/04/03 06:05:47;;;;;;;13.47;9.97;;;1.70;99.90;;;;;;5009226;28;21119;-64
2022/04/03 06:08:14;;;;;;;13.83;10.63;;;1.70;99.90;;;;;;5009761;28;20446;-65
2022/04/03 06:10:41;;;;;;;10.30;9.07;;;1.70;99.90;;;;;;5009661;28;20529;-64
2022/04/03 06:13:09;;;;;;;11.93;9.57;;;1.90;99.90;;;;;;5009536;28;20465;-64
2022/04/03 06:15:38;;;;;;;13.53;10.50;;;2.00;99.90;;;;;;5009288;28;20485;-64
2022/04/03 06:18:08;;;;;;;11.27;9.20;;;1.90;99.90;;;;;;5009412;28;20576;-65
2022/04/03 06:20:35;;;;;;;12.03;10.20;;;2.10;99.90;;;;;;5009478;28;20454;-64
2022/04/03 06:23:03;;;;;;;11.43;10.00;;;2.10;99.90;;;;;;5009449;28;20980;-62
2022/04/03 06:25:30;;;;;;;12.03;9.00;;;2.00;99.90;;;;;;5008817;28;20456;-65
2022/04/03 06:27:58;;;;;;;12.57;10.03;;;2.00;99.90;;;;;;5009674;28;20944;-66
2022/04/03 06:30:25;;;;;;;12.97;10.53;;;2.00;99.90;;;;;;5009368;28;20512;-64
2022/04/03 06:32:52;;;;;;;13.33;10.47;;;2.10;99.90;;;;;;5009806;28;20553;-65
2022/04/03 06:35:20;;;;;;;12.23;9.00;;;2.10;99.90;;;;;;5008692;28;20453;-65
2022/04/03 06:37:47;;;;;;;10.73;8.13;;;2.00;99.90;;;;;;5009905;28;20497;-63
2022/04/03 06:40:16;;;;;;;10.97;8.90;;;2.00;99.90;;;;;;5009138;28;20465;-64
2022/04/03 06:42:43;;;;;;;11.60;8.50;;;2.00;99.90;;;;;;5009904;28;20470;-66
2022/04/03 06:45:11;;;;;;;10.73;8.87;;;2.00;99.90;;;;;;5008783;28;20516;-65
2022/04/03 06:47:38;;;;;;;9.13;7.57;;;2.00;99.90;;;;;;5009709;28;20824;-66
2022/04/03 06:50:06;;;;;;;10.10;9.13;;;2.00;99.90;;;;;;5009097;28;20489;-64
2022/04/03 06:52:36;;;;;;;9.47;8.40;;;2.00;99.90;;;;;;5009335;28;20992;-66
2022/04/03 06:55:03;;;;;;;11.83;8.40;;;2.00;99.90;;;;;;5009233;28;20453;-67
2022/04/03 06:57:30;;;;;;;11.23;8.40;;;2.10;99.90;;;;;;5009472;28;21004;-64
2022/04/03 06:59:58;;;;;;;10.20;8.37;;;2.10;99.90;;;;;;5009367;28;20446;-64
2022/04/03 07:02:25;;;;;;;10.97;9.20;;;2.20;99.90;;;;;;5009446;28;20896;-65
2022/04/03 07:04:52;;;;;;;12.50;8.37;;;2.40;99.90;;;;;;5009149;28;20539;-64
2022/04/03 07:07:23;;;;;;;11.07;8.50;;;2.40;99.90;;;;;;5012276;28;20438;-66
2022/04/03 07:09:52;;;;;;;10.33;8.47;;;2.50;99.90;;;;;;5013321;28;20442;-65
2022/04/03 07:12:19;;;;;;;13.90;9.47;;;2.60;99.90;;;;;;5013298;28;20635;-66
2022/04/03 07:14:45;;;;;;;11.33;8.10;;;2.70;99.90;;;;;;5012344;28;20935;-66
2022/04/03 07:17:12;;;;;;;9.27;7.60;;;2.90;99.90;;;;;;5013375;28;20437;-64
2022/04/03 07:19:39;;;;;;;8.47;7.10;;;3.00;99.90;;;;;;5012509;28;20593;-66
2022/04/03 07:22:06;;;;;;;10.00;7.70;;;3.10;99.90;;;;;;5013276;28;20466;-65
2022/04/03 07:24:33;;;;;;;11.50;7.20;;;3.20;99.90;;;;;;5012031;28;20477;-65
2022/04/03 07:27:01;;;;;;;8.90;7.70;;;3.20;99.90;;;;;;5013177;28;20449;-65
2022/04/03 07:29:28;;;;;;;7.90;6.60;;;3.40;99.90;;;;;;5012382;28;20435;-66
2022/04/03 07:31:55;;;;;;;10.20;6.93;;;3.50;99.90;;;;;;5012882;28;20480;-66
2022/04/03 07:34:22;;;;;;;8.60;6.13;;;3.30;99.90;;;;;;5011981;28;20446;-65
2022/04/03 07:36:49;;;;;;;7.73;5.67;;;3.50;99.90;;;;;;5012718;28;20479;-66
2022/04/03 07:39:16;;;;;;;9.70;6.83;;;3.60;99.90;;;;;;5012342;28;20584;-67
2022/04/03 07:41:43;;;;;;;8.20;6.50;;;3.50;99.90;;;;;;5012762;28;20453;-65
2022/04/03 07:44:12;;;;;;;8.33;7.43;;;3.50;99.90;;;;;;5012195;28;20452;-65
2022/04/03 07:46:39;;;;;;;8.93;6.73;;;3.50;99.90;;;;;;5012200;28;20445;-65
2022/04/03 07:49:06;;;;;;;8.13;6.40;;;3.60;99.90;;;;;;5012475;28;20430;-66
2022/04/03 07:51:34;;;;;;;7.83;6.67;;;3.70;99.90;;;;;;5012406;28;20473;-66
2022/04/03 07:54:01;;;;;;;7.77;6.33;;;3.60;99.90;;;;;;5012565;28;20445;-66
2022/04/03 07:56:28;;;;;;;8.80;6.67;;;3.60;99.90;;;;;;5012023;28;20448;-65
2022/04/03 07:58:55;;;;;;;6.73;5.77;;;3.70;99.90;;;;;;5011720;28;20826;-64
2022/04/03 08:01:24;;;;;;;7.43;6.60;;;3.60;99.90;;;;;;5011962;28;20476;-66
2022/04/03 08:03:50;;;;;;;8.13;6.77;;;3.50;99.90;;;;;;5011998;28;20468;-64
2022/04/03 08:06:17;;;;;;;9.03;6.23;;;3.70;99.90;;;;;;5011375;28;20885;-65
2022/04/03 08:08:44;;;;;;;9.23;6.90;;;3.90;99.90;;;;;;5011505;28;20437;-65
2022/04/03 08:11:11;;;;;;;9.20;6.50;;;4.00;99.90;;;;;;5011807;28;20465;-65
2022/04/03 08:13:38;;;;;;;8.70;6.57;;;4.40;99.90;;;;;;5011815;28;20446;-64
2022/04/03 08:16:05;;;;;;;7.00;5.33;;;4.60;99.90;;;;;;5011204;28;20456;-66
2022/04/03 08:18:33;;;;;;;6.30;5.70;;;4.90;99.90;;;;;;5011268;28;20482;-66
2022/04/03 08:21:00;;;;;;;8.20;6.20;;;5.30;99.90;;;;;;5011902;28;20438;-66
2022/04/03 08:23:27;;;;;;;8.13;6.33;;;5.70;99.90;;;;;;5011818;28;20950;-66
2022/04/03 08:25:54;;;;;;;7.13;5.67;;;5.80;99.90;;;;;;5011066;28;20453;-66
2022/04/03 08:28:22;;;;;;;8.70;6.13;;;5.80;99.90;;;;;;5011625;28;20449;-67
2022/04/03 08:30:49;;;;;;;6.73;5.80;;;5.30;99.90;;;;;;5011040;28;20460;-67
2022/04/03 08:33:16;;;;;;;6.43;5.23;;;4.80;99.90;;;;;;5011867;28;20442;-66
2022/04/03 08:35:45;;;;;;;9.30;5.93;;;4.50;99.90;;;;;;5010903;28;20449;-66
2022/04/03 08:38:13;;;;;;;8.63;6.20;;;4.60;99.90;;;;;;5011538;28;20485;-67
2022/04/03 08:40:43;;;;;;;7.97;5.47;;;4.60;99.90;;;;;;5011250;28;20450;-67
2022/04/03 08:43:10;;;;;;;8.70;6.10;;;4.70;99.90;;;;;;5011574;28;20940;-68
2022/04/03 08:45:37;;;;;;;7.43;5.17;;;4.80;99.90;;;;;;5010561;28;20541;-67
2022/04/03 08:48:04;;;;;;;8.50;5.80;;;4.80;99.90;;;;;;5012273;28;20470;-66
2022/04/03 08:50:34;;;;;;;6.30;5.50;;;4.60;99.90;;;;;;5011783;28;20442;-66
2022/04/03 08:53:04;;;;;;;7.10;5.90;;;4.30;99.90;;;;;;5011775;28;20827;-66
2022/04/03 08:55:31;;;;;;;6.37;5.70;;;4.10;99.90;;;;;;5010969;28;20441;-66
2022/04/03 08:57:59;;;;;;;8.03;6.13;;;3.90;99.90;;;;;;5011606;28;20485;-67
2022/04/03 09:00:26;;;;;;;6.90;5.43;;;3.80;99.90;;;;;;5011258;28;20468;-66
2022/04/03 09:02:53;;;;;;;6.40;5.80;;;3.50;99.90;;;;;;5011197;28;20472;-67
2022/04/03 09:05:20;;;;;;;5.67;5.07;;;3.50;99.90;;;;;;5010405;28;20486;-66
2022/04/03 09:08:00;;;;;;;7.37;5.97;;;3.60;99.90;;;;;;5010769;28;20440;-67
2022/04/03 09:10:29;;;;;;;6.17;4.63;;;3.80;99.90;;;;;;5010983;28;20472;-66
2022/04/03 09:12:56;;;;;;;7.90;5.50;;;3.90;99.90;;;;;;5010921;28;20454;-67
2022/04/03 09:15:24;;;;;;;7.10;5.77;;;3.90;99.90;;;;;;5010209;28;20446;-65
2022/04/03 09:17:53;;;;;;;6.00;5.40;;;4.00;99.90;;;;;;5010674;28;20932;-66
2022/04/03 09:20:22;;;;;;;7.37;5.40;;;4.30;99.90;;;;;;5010306;28;20481;-67
2022/04/03 09:22:52;;;;;;;6.67;5.77;;;4.60;99.90;;;;;;5008218;28;20497;-66
2022/04/03 09:25:25;;;;;;;5.10;4.60;;;5.00;99.90;;;;;;5006532;28;20545;-66
2022/04/03 09:27:55;;;;;;;6.10;4.83;;;5.60;99.90;;;;;;5001295;28;20454;-66
2022/04/03 09:30:24;;;;;;;8.97;5.40;;;5.90;99.90;;;;;;5000231;28;20917;-67
2022/04/03 09:32:52;;;;;;;6.13;5.10;;;6.30;99.90;;;;;;5002070;28;20510;-67
2022/04/03 09:35:21;;;;;;;6.83;5.67;;;6.90;99.90;;;;;;5009666;28;20442;-66
2022/04/03 09:38:12;;;;;;;7.63;5.23;;;7.30;99.90;;;;;;5010687;28;20437;-66
2022/04/03 09:40:41;;;;;;;6.10;4.50;;;7.70;99.90;;;;;;5007330;28;20439;-67
2022/04/03 09:43:21;;;;;;;8.13;5.40;;;7.70;99.90;;;;;;5003614;28;21007;-66
2022/04/03 09:45:49;;;;;;;5.63;5.03;;;7.80;99.90;;;;;;5007139;28;20465;-71
2022/04/03 09:48:24;;;;;;;5.37;4.87;;;7.90;99.90;;;;;;5004470;28;20553;-66
2022/04/03 09:51:03;;;;;;;5.23;4.73;;;7.60;99.90;;;;;;5004500;28;20460;-65
2022/04/03 09:53:41;;;;;;;5.50;4.93;;;7.30;99.90;;;;;;5011643;28;20540;-65
2022/04/03 09:56:09;;;;;;;7.67;4.70;;;6.90;99.90;;;;;;5011839;28;20449;-62
2022/04/03 09:58:59;;;;;;;6.50;5.50;;;6.80;99.90;;;;;;5009399;28;20450;-65
2022/04/03 10:01:27;;;;;;;6.73;5.67;;;6.70;99.90;;;;;;4989655;28;20474;-65
2022/04/03 10:03:55;;;;;;;5.17;3.90;;;6.60;99.90;;;;;;5009160;28;20453;-65
2022/04/03 10:06:23;;;;;;;4.53;3.97;;;6.40;99.90;;;;;;5002544;28;20446;-65
2022/04/03 10:08:51;;;;;;;4.87;3.87;;;6.40;99.90;;;;;;4989723;28;20513;-65
2022/04/03 10:11:18;;;;;;;4.23;3.47;;;6.30;99.90;;;;;;4992493;28;20486;-65
2022/04/03 10:13:48;;;;;;;5.43;3.83;;;6.50;99.90;;;;;;5007806;28;20892;-66
2022/04/03 10:16:16;;;;;;;4.60;3.90;;;6.50;99.90;;;;;;5005190;28;20469;-65
2022/04/03 10:18:44;;;;;;;5.00;3.83;;;6.90;99.90;;;;;;5002824;28;20581;-66
2022/04/03 10:21:16;;;;;;;5.10;4.50;;;6.90;99.90;;;;;;5018972;28;20472;-65
2022/04/03 10:23:45;;;;;;;6.77;4.40;;;6.50;99.90;;;;;;5007452;28;20528;-65
2022/04/03 10:26:16;;;;;;;5.73;3.40;;;6.40;99.90;;;;;;5001626;28;20466;-65
2022/04/03 10:28:50;;;;;;;4.60;3.67;;;6.70;99.90;;;;;;5004801;28;20466;-65
2022/04/03 10:31:17;;;;;;;5.77;3.60;;;6.80;99.90;;;;;;5004284;28;20495;-65
2022/04/03 10:33:48;;;;;;;7.30;4.77;;;7.10;99.90;;;;;;5008796;28;20442;-65
2022/04/03 10:36:17;;;;;;;5.77;3.77;;;7.30;99.90;;;;;;5008573;28;20465;-65
2022/04/03 10:38:45;;;;;;;5.50;3.60;;;7.30;99.90;;;;;;4998664;28;20557;-65
2022/04/03 10:41:27;;;;;;;7.70;4.43;;;7.50;99.90;;;;;;5003610;28;20880;-65
2022/04/03 10:44:14;;;;;;;6.67;4.10;;;7.50;99.90;;;;;;5005877;28;21070;-65
2022/04/03 10:47:20;;;;;;;5.00;3.30;;;7.90;99.90;;;;;;5009497;28;20986;-66
2022/04/03 10:50:00;;;;;;;4.90;3.60;;;8.20;99.90;;;;;;5009583;28;20461;-66
2022/04/03 10:52:48;;;;;;;4.40;3.43;;;8.30;99.90;;;;;;5009302;28;20515;-66
2022/04/03 10:55:17;;;;;;;5.00;3.85;;;8.30;99.90;;;;;;5008857;28;20854;-65
2022/04/03 10:57:45;;;;;;;5.07;3.77;;;8.20;99.90;;;;;;5001783;28;20317;-65
2022/04/03 11:00:38;;;;;;;5.03;3.30;;;8.20;99.90;;;;;;5001719;28;20494;-66
2022/04/03 11:03:36;;;;;;;5.43;3.20;;;7.60;99.90;;;;;;5017848;28;21318;-66
2022/04/03 11:06:23;;;;;;;4.43;3.30;;;7.40;99.90;;;;;;5025738;28;20460;-66
2022/04/03 11:09:09;;;;;;;6.03;3.43;;;7.60;99.90;;;;;;5008601;28;20470;-69
2022/04/03 11:11:39;;;;;;;4.43;3.13;;;8.80;99.90;;;;;;4992850;28;20497;-66
2022/04/03 11:14:08;;;;;;;4.87;3.43;;;9.60;95.00;;;;;;5012541;28;20513;-68
2022/04/03 11:16:51;;;;;;;4.53;3.77;;;9.70;98.60;;;;;;5005895;28;20483;-67
2022/04/03 11:19:34;;;;;;;4.67;3.20;;;10.20;96.90;;;;;;5006330;28;20576;-66
2022/04/03 11:22:02;;;;;;;4.13;3.50;;;10.90;94.50;;;;;;5011418;28;20461;-67
2022/04/03 11:24:29;;;;;;;5.13;4.03;;;11.10;95.00;;;;;;5007066;28;20463;-70
2022/04/03 11:26:57;;;;;;;3.87;3.47;;;11.10;97.60;;;;;;5011667;28;21073;-63
2022/04/03 11:29:24;;;;;;;4.60;3.60;;;11.30;97.20;;;;;;5001164;28;20549;-66
2022/04/03 11:31:54;;;;;;;6.17;3.33;;;11.10;96.00;;;;;;5001388;28;20942;-66
2022/04/03 11:34:21;;;;;;;3.93;3.20;;;10.80;96.70;;;;;;5008325;28;20504;-66
2022/04/03 11:36:48;;;;;;;4.30;3.50;;;10.40;93.60;;;;;;5010350;28;20462;-67
2022/04/03 11:39:15;;;;;;;5.17;3.43;;;10.20;96.20;;;;;;5007288;28;20486;-67
2022/04/03 11:41:46;;;;;;;4.00;3.60;;;9.80;96.60;;;;;;5011558;28;20473;-66
2022/04/03 11:44:15;;;;;;;4.83;3.70;;;9.20;99.10;;;;;;5002617;28;20976;-65
2022/04/03 11:46:48;;;;;;;4.10;3.13;;;9.30;98.50;;;;;;5009519;28;20537;-66
2022/04/03 11:49:18;;;;;;;4.80;3.93;;;9.40;97.90;;;;;;5003973;28;20446;-66
2022/04/03 11:51:48;;;;;;;4.30;3.27;;;9.20;97.80;;;;;;5008641;28;20466;-66
2022/04/03 11:54:16;;;;;;;5.37;3.33;;;9.70;96.70;;;;;;5007713;28;20497;-66
2022/04/03 11:56:43;;;;;;;5.57;3.50;;;9.90;92.50;;;;;;5008914;28;20446;-66
2022/04/03 11:59:10;;;;;;;4.13;3.03;;;9.70;92.20;;;;;;5006882;28;20548;-65
2022/04/03 12:01:39;;;;;;;4.90;4.00;;;9.80;95.50;;;;;;5008458;28;20815;-66
2022/04/03 12:04:09;;;;;;;5.10;3.17;;;9.60;93.80;;;;;;5014746;28;20445;-66
2022/04/03 12:06:37;;;;;;;4.70;3.60;;;9.40;95.50;;;;;;5007659;28;20532;-66
2022/04/03 12:09:08;;;;;;;4.40;2.87;;;9.00;95.50;;;;;;5009147;28;20540;-65
2022/04/03 12:11:36;;;;;;;4.13;3.07;;;8.40;93.00;;;;;;5009795;28;20480;-68
2022/04/03 12:14:05;;;;;;;3.70;3.20;;;7.40;92.00;;;;;;5010922;28;20461;-64
2022/04/03 12:16:33;;;;;;;4.93;3.40;;;7.20;97.10;;;;;;5010741;28;20450;-65
2022/04/03 12:19:01;;;;;;;4.10;3.10;;;7.00;99.40;;;;;;5016435;28;21003;-66
2022/04/03 12:21:41;;;;;;;4.07;2.93;;;6.90;98.50;;;;;;5008742;28;21083;-64
2022/04/03 12:24:13;;;;;;;4.27;3.83;;;6.70;96.20;;;;;;5003352;28;20473;-65
2022/04/03 12:26:45;;;;;;;4.90;3.50;;;6.90;99.90;;;;;;5007932;28;20461;-65
2022/04/03 12:29:12;;;;;;;7.40;3.83;;;7.00;99.20;;;;;;5002960;28;20512;-65
2022/04/03 12:31:40;;;;;;;4.30;3.40;;;7.20;98.60;;;;;;5011992;28;20549;-65
2022/04/03 12:34:09;;;;;;;6.00;3.63;;;7.00;96.80;;;;;;5011815;28;20892;-64
2022/04/03 12:36:43;;;;;;;6.77;4.23;;;6.80;99.20;;;;;;5010195;28;20568;-66
2022/04/03 12:39:34;;;;;;;7.97;4.23;;;6.70;97.40;;;;;;5008445;28;20859;-66
2022/04/03 12:42:22;;;;;;;5.47;3.80;;;6.80;99.90;;;;;;5011422;28;20465;-65
2022/04/03 12:44:52;;;;;;;5.07;3.73;;;7.20;99.80;;;;;;5005053;28;20446;-64
2022/04/03 12:47:20;;;;;;;4.53;3.40;;;7.60;99.90;;;;;;5008345;28;20460;-65
2022/04/03 12:49:49;;;;;;;7.37;3.70;;;7.90;98.10;;;;;;5009783;28;20453;-65
2022/04/03 12:52:43;;;;;;;5.40;4.23;;;8.20;96.70;;;;;;5010603;28;20532;-64
2022/04/03 12:55:35;;;;;;;3.97;3.40;;;7.60;95.50;;;;;;5016253;28;20441;-64